createdAt,value
2018-10-04T00:01:22.020Z,12.50
2018-10-04T00:03:50.333Z,12.60
2018-10-04T00:06:18.637Z,12.60
2018-10-04T00:08:46.919Z,12.70
2018-10-04T00:11:15.176Z,12.70
2018-10-04T00:13:43.444Z,12.80
2018-10-04T00:16:11.716Z,12.70
2018-10-04T00:18:39.976Z,12.80
2018-10-04T00:21:08.274Z,12.80
2018-10-04T00:23:36.520Z,12.90
2018-10-04T00:26:04.795Z,12.80
2018-10-04T00:28:33.077Z,12.70
2018-10-04T00:31:01.372Z,12.70
2018-10-04T00:33:29.629Z,12.70
2018-10-04T00:35:57.936Z,12.70
2018-10-04T00:38:26.224Z,12.60
2018-10-04T00:40:54.521Z,12.60
2018-10-04T00:43:22.830Z,12.60
2018-10-04T00:45:51.144Z,12.60
2018-10-04T00:48:19.391Z,12.40
2018-10-04T00:50:47.692Z,12.40
2018-10-04T00:53:22.447Z,12.50
2018-10-04T00:55:50.782Z,12.40
2018-10-04T00:58:19.205Z,12.30
2018-10-04T01:00:47.501Z,12.30
2018-10-04T01:03:15.788Z,12.20
2018-10-04T01:05:44.049Z,12.10
2018-10-04T01:08:12.305Z,12.10
2018-10-04T01:10:40.573Z,12.10
2018-10-04T01:13:08.955Z,12.10
2018-10-04T01:15:37.248Z,12.10
2018-10-04T01:18:16.924Z,12.20
2018-10-04T01:20:45.224Z,12.10
2018-10-04T01:23:13.569Z,12.00
2018-10-04T01:25:41.845Z,12.00
2018-10-04T01:28:10.316Z,12.00
2018-10-04T01:30:38.620Z,12.00
2018-10-04T01:33:07.055Z,12.00
2018-10-04T01:35:35.478Z,12.00
2018-10-04T01:38:03.809Z,12.10
2018-10-04T01:40:32.239Z,12.10
2018-10-04T01:43:00.492Z,12.20
2018-10-04T01:45:28.777Z,12.10
2018-10-04T01:47:57.080Z,12.10
2018-10-04T01:50:25.349Z,12.00
2018-10-04T01:52:53.596Z,12.00
2018-10-04T01:55:21.883Z,11.90
2018-10-04T01:57:50.126Z,11.80
2018-10-04T02:00:18.413Z,11.90
2018-10-04T02:02:46.731Z,11.80
2018-10-04T02:05:14.996Z,11.80
2018-10-04T02:07:43.257Z,11.80
2018-10-04T02:10:11.561Z,11.80
2018-10-04T02:12:39.837Z,11.70
2018-10-04T02:15:08.355Z,11.80
2018-10-04T02:17:36.678Z,11.70
2018-10-04T02:20:05.177Z,11.80
2018-10-04T02:22:33.472Z,11.80
2018-10-04T02:25:01.738Z,11.80
2018-10-04T02:27:30.940Z,11.90
2018-10-04T02:29:59.205Z,11.90
2018-10-04T02:32:27.487Z,11.80
2018-10-04T02:34:55.860Z,11.70
2018-10-04T02:37:24.118Z,11.70
2018-10-04T02:39:52.472Z,11.80
2018-10-04T02:42:20.777Z,11.80
2018-10-04T02:44:49.073Z,11.80
2018-10-04T02:47:17.322Z,11.80
2018-10-04T02:49:45.600Z,11.70
2018-10-04T02:52:13.885Z,11.80
2018-10-04T02:54:47.499Z,11.70
2018-10-04T02:57:15.783Z,11.70
2018-10-04T02:59:44.036Z,11.80
2018-10-04T03:02:12.329Z,11.80
2018-10-04T03:04:40.580Z,11.80
2018-10-04T03:07:08.964Z,11.70
2018-10-04T03:09:37.220Z,11.70
2018-10-04T03:12:05.510Z,11.70
2018-10-04T03:14:33.773Z,11.80
2018-10-04T03:17:02.077Z,11.70
2018-10-04T03:19:30.364Z,11.70
2018-10-04T03:21:58.745Z,11.70
2018-10-04T03:24:27.026Z,11.70
2018-10-04T03:26:55.353Z,11.70
2018-10-04T03:29:23.604Z,11.70
2018-10-04T03:31:51.848Z,11.80
2018-10-04T03:34:20.156Z,11.80
2018-10-04T03:36:48.409Z,11.80
2018-10-04T03:39:16.688Z,11.90
2018-10-04T03:41:44.956Z,11.90
2018-10-04T03:44:13.289Z,11.90
2018-10-04T03:46:41.517Z,12.00
2018-10-04T03:49:09.896Z,12.10
2018-10-04T03:51:38.162Z,12.30
2018-10-04T03:54:06.410Z,12.30
2018-10-04T03:56:34.805Z,12.30
2018-10-04T03:59:03.328Z,12.30
2018-10-04T04:01:31.581Z,12.40
2018-10-04T04:03:59.859Z,12.40
2018-10-04T04:06:28.134Z,12.50
2018-10-04T04:08:56.368Z,12.50
2018-10-04T04:11:25.496Z,12.50
2018-10-04T04:13:53.805Z,12.50
2018-10-04T04:16:22.069Z,12.60
2018-10-04T04:18:50.320Z,12.50
2018-10-04T04:21:18.600Z,12.60
2018-10-04T04:23:52.024Z,12.60
2018-10-04T04:26:20.824Z,12.60
2018-10-04T04:28:50.336Z,12.60
2018-10-04T04:31:19.501Z,12.50
2018-10-04T04:33:48.204Z,12.50
2018-10-04T04:36:17.203Z,12.60
2018-10-04T04:38:46.184Z,12.60
2018-10-04T04:41:14.476Z,12.70
2018-10-04T04:43:43.040Z,12.70
2018-10-04T04:46:11.352Z,12.70
2018-10-04T04:48:39.621Z,12.60
2018-10-04T04:51:07.981Z,12.60
2018-10-04T04:53:39.004Z,12.60
2018-10-04T04:56:07.605Z,12.70
2018-10-04T04:58:35.858Z,12.70
2018-10-04T05:01:04.276Z,12.60
2018-10-04T05:03:32.548Z,12.60
2018-10-04T05:06:00.832Z,12.50
2018-10-04T05:08:29.113Z,12.50
2018-10-04T05:10:57.389Z,12.50
2018-10-04T05:13:25.683Z,12.40
2018-10-04T05:15:54.141Z,12.40
2018-10-04T05:18:22.404Z,12.40
2018-10-04T05:20:50.684Z,12.30
2018-10-04T05:23:18.972Z,12.20
2018-10-04T05:25:47.270Z,12.30
2018-10-04T05:28:15.561Z,12.20
2018-10-04T05:30:43.814Z,12.20
2018-10-04T05:33:12.077Z,12.20
2018-10-04T05:35:40.367Z,12.20
2018-10-04T05:38:08.681Z,12.20
2018-10-04T05:40:36.930Z,12.20
2018-10-04T05:43:05.237Z,12.10
2018-10-04T05:45:33.548Z,12.10
2018-10-04T05:48:01.769Z,12.10
2018-10-04T05:50:30.039Z,12.20
2018-10-04T05:52:58.379Z,12.20
2018-10-04T05:55:26.604Z,12.30
2018-10-04T05:57:54.872Z,12.30
2018-10-04T06:00:32.126Z,12.30
2018-10-04T06:03:00.444Z,12.30
2018-10-04T06:05:28.872Z,12.30
2018-10-04T06:07:57.068Z,12.30
2018-10-04T06:10:25.652Z,12.30
2018-10-04T06:12:53.997Z,12.40
2018-10-04T06:15:22.340Z,12.40
2018-10-04T06:17:50.642Z,12.40
2018-10-04T06:20:18.916Z,12.40
2018-10-04T06:22:47.196Z,12.40
2018-10-04T06:25:15.484Z,12.50
2018-10-04T06:27:43.755Z,12.50
2018-10-04T06:30:12.464Z,12.50
2018-10-04T06:32:40.959Z,12.50
2018-10-04T06:35:09.519Z,12.50
2018-10-04T06:37:38.197Z,12.50
2018-10-04T06:40:06.704Z,12.50
2018-10-04T06:42:34.924Z,12.50
2018-10-04T06:45:03.196Z,12.60
2018-10-04T06:47:31.470Z,12.60
2018-10-04T06:49:59.783Z,12.50
2018-10-04T06:52:28.064Z,12.60
2018-10-04T06:54:56.364Z,12.60
2018-10-04T06:57:24.724Z,12.70
2018-10-04T06:59:52.984Z,12.80
2018-10-04T07:02:21.256Z,12.80
2018-10-04T07:04:50.177Z,12.80
2018-10-04T07:07:18.652Z,12.90
2018-10-04T07:09:47.125Z,12.90
2018-10-04T07:12:15.418Z,13.00
2018-10-04T07:14:43.698Z,13.00
2018-10-04T07:17:11.949Z,13.10
2018-10-04T07:19:40.235Z,13.10
2018-10-04T07:22:08.569Z,13.20
2018-10-04T07:24:36.874Z,13.20
2018-10-04T07:27:05.361Z,13.20
2018-10-04T07:29:33.592Z,13.30
2018-10-04T07:32:01.896Z,13.30
2018-10-04T07:34:30.167Z,13.40
2018-10-04T07:36:58.424Z,13.40
2018-10-04T07:39:26.724Z,13.40
2018-10-04T07:41:55.012Z,13.50
2018-10-04T07:44:23.272Z,13.60
2018-10-04T07:46:51.591Z,13.60
2018-10-04T07:49:19.845Z,13.70
2018-10-04T07:51:48.243Z,13.70
2018-10-04T07:54:16.493Z,13.70
2018-10-04T07:56:44.839Z,13.70
2018-10-04T07:59:13.023Z,13.70
2018-10-04T08:01:41.407Z,13.60
2018-10-04T08:04:09.953Z,13.70
2018-10-04T08:06:38.584Z,13.70
2018-10-04T08:09:07.734Z,13.80
2018-10-04T08:11:36.042Z,13.90
2018-10-04T08:14:04.295Z,13.80
2018-10-04T08:16:32.528Z,13.70
2018-10-04T08:19:00.796Z,13.70
2018-10-04T08:21:29.073Z,13.70
2018-10-04T08:23:57.800Z,13.70
2018-10-04T08:26:26.105Z,13.80
2018-10-04T08:28:54.392Z,13.80
2018-10-04T08:31:22.670Z,13.70
2018-10-04T08:33:50.940Z,13.80
2018-10-04T08:36:19.208Z,14.00
2018-10-04T08:38:47.481Z,14.00
2018-10-04T08:41:15.732Z,14.00
2018-10-04T08:43:44.036Z,14.00
2018-10-04T08:46:12.337Z,14.10
2018-10-04T08:48:40.567Z,14.20
2018-10-04T08:51:08.857Z,14.10
2018-10-04T08:53:37.180Z,14.10
2018-10-04T08:56:05.440Z,14.10
2018-10-04T08:58:33.672Z,14.20
2018-10-04T09:01:03.160Z,14.20
2018-10-04T09:03:31.676Z,14.20
2018-10-04T09:05:59.940Z,14.30
2018-10-04T09:08:28.212Z,14.30
2018-10-04T09:10:56.497Z,14.30
2018-10-04T09:13:24.837Z,14.30
2018-10-04T09:15:53.110Z,14.40
2018-10-04T09:18:21.352Z,14.50
2018-10-04T09:20:49.701Z,14.60
2018-10-04T09:23:17.975Z,14.70
2018-10-04T09:25:46.284Z,14.90
2018-10-04T09:28:15.032Z,15.10
2018-10-04T09:30:48.943Z,15.10
2018-10-04T09:33:17.716Z,15.20
2018-10-04T09:35:45.997Z,15.20
2018-10-04T09:38:14.376Z,15.30
2018-10-04T09:40:42.961Z,15.20
2018-10-04T09:43:11.603Z,15.20
2018-10-04T09:45:40.009Z,15.20
2018-10-04T09:48:11.773Z,15.20
2018-10-04T09:50:40.972Z,15.20
2018-10-04T09:53:10.381Z,15.00
2018-10-04T09:55:44.117Z,14.90
2018-10-04T09:58:12.400Z,15.00
2018-10-04T10:00:46.053Z,15.10
2018-10-04T10:03:14.376Z,15.00
2018-10-04T10:05:42.649Z,15.10
2018-10-04T10:08:11.003Z,15.10
2018-10-04T10:10:39.264Z,15.30
2018-10-04T10:13:07.562Z,15.40
2018-10-04T10:15:35.880Z,15.50
2018-10-04T10:18:04.120Z,15.60
2018-10-04T10:20:32.396Z,15.70
2018-10-04T10:23:00.692Z,15.70
2018-10-04T10:25:28.937Z,15.70
2018-10-04T10:27:57.224Z,15.90
2018-10-04T10:30:25.477Z,16.10
2018-10-04T10:32:53.732Z,16.10
2018-10-04T10:35:22.006Z,16.10
2018-10-04T10:37:50.267Z,16.10
2018-10-04T10:40:18.830Z,16.20
2018-10-04T10:42:46.960Z,16.20
2018-10-04T10:45:15.236Z,16.30
2018-10-04T10:47:43.520Z,16.40
2018-10-04T10:50:11.917Z,16.60
2018-10-04T10:52:40.205Z,16.80
2018-10-04T10:55:08.475Z,16.80
2018-10-04T10:57:36.769Z,16.90
2018-10-04T11:00:05.009Z,17.10
2018-10-04T11:02:33.596Z,17.20
2018-10-04T11:05:01.980Z,17.10
2018-10-04T11:07:30.265Z,17.00
2018-10-04T11:09:58.626Z,17.00
2018-10-04T11:12:26.856Z,17.00
2018-10-04T11:14:55.088Z,17.10
2018-10-04T11:17:23.388Z,17.10
2018-10-04T11:19:51.672Z,17.30
2018-10-04T11:22:19.964Z,17.20
2018-10-04T11:24:48.252Z,17.30
2018-10-04T11:27:16.538Z,17.50
2018-10-04T11:29:45.228Z,17.60
2018-10-04T11:32:13.664Z,17.70
2018-10-04T11:34:41.924Z,17.70
2018-10-04T11:37:10.425Z,17.70
2018-10-04T11:39:38.698Z,18.00
2018-10-04T11:42:07.089Z,18.10
2018-10-04T11:44:38.734Z,18.10
2018-10-04T11:47:10.964Z,18.10
2018-10-04T11:49:39.257Z,18.20
2018-10-04T11:52:07.532Z,18.20
2018-10-04T11:54:35.806Z,18.40
2018-10-04T11:57:04.067Z,18.70
2018-10-04T11:59:32.340Z,19.10
2018-10-04T12:02:00.644Z,19.30
2018-10-04T12:04:28.915Z,19.30
2018-10-04T12:06:57.195Z,19.40
2018-10-04T12:09:25.518Z,19.50
2018-10-04T12:11:53.792Z,19.70
2018-10-04T12:14:22.084Z,19.70
2018-10-04T12:16:50.472Z,19.70
2018-10-04T12:19:18.770Z,19.70
2018-10-04T12:21:47.036Z,19.60
2018-10-04T12:24:15.288Z,19.40
2018-10-04T12:26:43.572Z,19.40
2018-10-04T12:29:11.997Z,19.30
2018-10-04T12:31:40.253Z,19.40
2018-10-04T12:34:08.531Z,19.70
2018-10-04T12:36:36.797Z,19.90
2018-10-04T12:39:07.541Z,19.80
2018-10-04T12:41:35.808Z,19.70
2018-10-04T12:44:04.156Z,19.70
2018-10-04T12:46:32.376Z,19.70
2018-10-04T12:49:00.636Z,19.80
2018-10-04T12:51:28.915Z,20.00
2018-10-04T12:53:57.206Z,20.00
2018-10-04T12:56:25.488Z,19.90
2018-10-04T12:58:53.766Z,19.70
2018-10-04T13:01:22.032Z,19.70
2018-10-04T13:03:50.284Z,19.90
2018-10-04T13:06:18.649Z,20.30
2018-10-04T13:08:46.876Z,20.80
2018-10-04T13:11:15.163Z,21.00
2018-10-04T13:13:43.484Z,21.30
2018-10-04T13:16:11.764Z,21.60
2018-10-04T13:18:40.032Z,22.00
2018-10-04T13:21:08.475Z,22.40
2018-10-04T13:23:36.619Z,22.90
2018-10-04T13:26:04.907Z,23.60
2018-10-04T13:28:33.169Z,23.90
2018-10-04T13:31:01.437Z,24.10
2018-10-04T13:33:29.753Z,24.90
2018-10-04T13:35:57.989Z,25.40
2018-10-04T13:38:26.237Z,25.30
2018-10-04T13:40:54.569Z,25.60
2018-10-04T13:43:22.765Z,25.70
2018-10-04T13:45:51.117Z,26.00
2018-10-04T13:48:19.359Z,26.50
2018-10-04T13:50:47.636Z,25.90
2018-10-04T13:53:15.910Z,25.60
2018-10-04T13:55:44.181Z,25.50
2018-10-04T13:58:12.468Z,25.20
2018-10-04T14:00:40.743Z,24.90
2018-10-04T14:03:09.004Z,24.50
2018-10-04T14:05:37.321Z,23.80
2018-10-04T14:08:05.621Z,23.50
2018-10-04T14:10:33.864Z,23.30
2018-10-04T14:13:02.123Z,23.20
2018-10-04T14:15:30.402Z,23.20
2018-10-04T14:17:58.666Z,23.20
2018-10-04T14:20:26.959Z,23.20
2018-10-04T14:22:55.232Z,23.30
2018-10-04T14:25:23.484Z,23.30
2018-10-04T14:27:51.770Z,23.20
2018-10-04T14:30:20.026Z,23.10
2018-10-04T14:32:48.362Z,22.90
2018-10-04T14:35:16.573Z,22.90
2018-10-04T14:37:44.853Z,22.90
2018-10-04T14:40:13.144Z,22.80
2018-10-04T14:42:41.672Z,22.80
2018-10-04T14:45:10.057Z,22.90
2018-10-04T14:47:38.436Z,22.70
2018-10-04T14:50:06.798Z,22.70
2018-10-04T14:52:35.056Z,23.00
2018-10-04T14:55:03.456Z,23.40
2018-10-04T14:57:31.732Z,23.60
2018-10-04T15:00:00.053Z,23.50
2018-10-04T15:02:28.316Z,23.60
2018-10-04T15:04:56.601Z,23.50
2018-10-04T15:07:24.852Z,23.40
2018-10-04T15:09:53.136Z,23.30
2018-10-04T15:12:21.392Z,23.20
2018-10-04T15:14:49.708Z,23.20
2018-10-04T15:17:18.101Z,22.60
2018-10-04T15:19:46.361Z,22.00
2018-10-04T15:22:14.662Z,21.80
2018-10-04T15:24:42.919Z,21.80
2018-10-04T15:27:11.320Z,21.60
2018-10-04T15:29:39.591Z,21.70
2018-10-04T15:32:07.872Z,21.80
2018-10-04T15:34:36.142Z,21.70
2018-10-04T15:37:04.416Z,21.70
2018-10-04T15:39:32.676Z,21.60
2018-10-04T15:42:00.924Z,21.30
2018-10-04T15:44:29.208Z,21.10
2018-10-04T15:46:57.497Z,20.80
2018-10-04T15:49:25.748Z,20.70
2018-10-04T15:51:54.015Z,20.60
2018-10-04T15:54:22.264Z,20.80
2018-10-04T15:56:50.664Z,20.80
2018-10-04T15:59:18.917Z,20.70
2018-10-04T16:01:47.200Z,20.70
2018-10-04T16:04:15.428Z,20.60
2018-10-04T16:06:43.700Z,20.60
2018-10-04T16:09:12.037Z,20.50
2018-10-04T16:11:40.312Z,20.60
2018-10-04T16:14:08.693Z,20.40
2018-10-04T16:16:36.967Z,20.30
2018-10-04T16:19:05.496Z,20.20
2018-10-04T16:21:33.740Z,20.20
2018-10-04T16:24:02.025Z,20.20
2018-10-04T16:26:30.288Z,20.30
2018-10-04T16:28:58.576Z,20.20
2018-10-04T16:31:26.891Z,20.00
2018-10-04T16:33:55.164Z,19.70
2018-10-04T16:36:23.448Z,19.50
2018-10-04T16:38:51.724Z,19.40
2018-10-04T16:41:19.987Z,19.20
2018-10-04T16:43:48.267Z,19.10
2018-10-04T16:46:16.556Z,19.00
2018-10-04T16:48:44.864Z,19.00
2018-10-04T16:51:13.232Z,18.90
2018-10-04T16:53:41.469Z,18.90
2018-10-04T16:56:09.756Z,18.80
2018-10-04T16:58:38.020Z,18.80
2018-10-04T17:01:06.742Z,18.80
2018-10-04T17:03:35.231Z,18.80
2018-10-04T17:06:03.765Z,18.70
2018-10-04T17:08:32.336Z,18.60
2018-10-04T17:11:00.693Z,18.60
2018-10-04T17:13:29.056Z,18.50
2018-10-04T17:15:57.341Z,18.40
2018-10-04T17:18:25.633Z,18.50
2018-10-04T17:20:54.000Z,18.50
2018-10-04T17:23:22.247Z,18.30
2018-10-04T17:25:50.677Z,18.40
2018-10-04T17:28:19.240Z,18.30
2018-10-04T17:30:47.509Z,18.20
2018-10-04T17:33:15.800Z,18.10
2018-10-04T17:35:44.113Z,18.20
2018-10-04T17:38:12.438Z,18.20
2018-10-04T17:40:40.741Z,18.20
2018-10-04T17:43:09.014Z,18.10
2018-10-04T17:45:37.282Z,18.10
2018-10-04T17:48:05.548Z,18.20
2018-10-04T17:50:33.788Z,18.10
2018-10-04T17:53:02.080Z,18.10
2018-10-04T17:55:30.347Z,18.00
2018-10-04T17:57:58.639Z,18.00
2018-10-04T18:00:26.872Z,17.90
2018-10-04T18:02:55.357Z,17.80
2018-10-04T18:05:23.624Z,17.70
2018-10-04T18:07:52.017Z,17.60
2018-10-04T18:10:20.360Z,17.60
2018-10-04T18:12:48.704Z,17.50
2018-10-04T18:15:16.972Z,17.50
2018-10-04T18:17:45.221Z,17.40
2018-10-04T18:20:13.476Z,17.40
2018-10-04T18:22:41.760Z,17.30
2018-10-04T18:25:10.612Z,17.30
2018-10-04T18:27:38.904Z,17.40
2018-10-04T18:30:07.630Z,17.30
2018-10-04T18:32:36.066Z,17.20
2018-10-04T18:35:04.482Z,17.10
2018-10-04T18:37:32.764Z,17.00
2018-10-04T18:40:01.068Z,16.80
2018-10-04T18:42:29.441Z,16.70
2018-10-04T18:44:57.710Z,16.70
2018-10-04T18:47:26.086Z,16.60
2018-10-04T18:49:54.356Z,16.60
2018-10-04T18:52:22.691Z,16.60
2018-10-04T18:54:50.986Z,16.60
2018-10-04T18:57:19.277Z,16.50
2018-10-04T18:59:47.666Z,16.50
2018-10-04T19:02:15.973Z,16.50
2018-10-04T19:04:44.378Z,16.50
2018-10-04T19:07:12.672Z,16.40
2018-10-04T19:09:41.008Z,16.40
2018-10-04T19:12:09.298Z,16.30
2018-10-04T19:14:37.609Z,16.30
2018-10-04T19:17:06.024Z,16.30
2018-10-04T19:19:34.424Z,16.10
2018-10-04T19:22:02.763Z,16.10
2018-10-04T19:24:31.048Z,16.00
2018-10-04T19:26:59.334Z,16.00
2018-10-04T19:29:27.620Z,16.00
2018-10-04T19:31:55.935Z,16.00
2018-10-04T19:34:24.200Z,16.00
2018-10-04T19:36:52.462Z,16.00
2018-10-04T19:39:20.764Z,16.00
2018-10-04T19:41:49.052Z,16.00
2018-10-04T19:44:17.349Z,16.00
2018-10-04T19:46:45.724Z,16.00
2018-10-04T19:49:14.013Z,16.10
2018-10-04T19:51:42.368Z,16.10
2018-10-04T19:54:10.707Z,16.10
2018-10-04T19:56:39.034Z,16.00
2018-10-04T19:59:07.364Z,16.00
2018-10-04T20:01:35.664Z,16.00
2018-10-04T20:04:03.968Z,16.00
2018-10-04T20:06:32.386Z,16.00
2018-10-04T20:09:00.810Z,16.00
2018-10-04T20:11:29.307Z,15.90
2018-10-04T20:13:57.595Z,15.90
2018-10-04T20:16:26.136Z,15.90
2018-10-04T20:18:54.600Z,15.80
2018-10-04T20:21:22.867Z,15.80
2018-10-04T20:23:51.630Z,15.80
2018-10-04T20:26:19.962Z,15.70
2018-10-04T20:28:48.253Z,15.70
2018-10-04T20:31:16.678Z,15.60
2018-10-04T20:33:44.935Z,15.50
2018-10-04T20:36:13.320Z,15.50
2018-10-04T20:38:41.882Z,15.40
2018-10-04T20:41:10.338Z,15.40
2018-10-04T20:43:38.839Z,15.40
2018-10-04T20:46:07.235Z,15.30
2018-10-04T20:48:35.708Z,15.30
2018-10-04T20:51:04.022Z,15.20
2018-10-04T20:53:32.448Z,15.10
2018-10-04T20:56:01.122Z,15.00
2018-10-04T20:58:29.439Z,15.00
2018-10-04T21:00:57.741Z,15.00
2018-10-04T21:03:26.032Z,15.00
2018-10-04T21:05:54.317Z,14.90
2018-10-04T21:08:22.604Z,14.90
2018-10-04T21:10:50.905Z,14.90
2018-10-04T21:13:19.184Z,14.80
2018-10-04T21:15:47.559Z,14.80
2018-10-04T21:18:15.969Z,14.70
2018-10-04T21:20:44.265Z,14.70
2018-10-04T21:23:12.867Z,14.60
2018-10-04T21:25:41.016Z,14.50
2018-10-04T21:28:09.268Z,14.50
2018-10-04T21:30:37.621Z,14.50
2018-10-04T21:33:05.920Z,14.50
2018-10-04T21:35:34.193Z,14.40
2018-10-04T21:38:02.695Z,14.40
2018-10-04T21:40:30.960Z,14.30
2018-10-04T21:42:59.408Z,14.30
2018-10-04T21:45:27.674Z,14.30
2018-10-04T21:47:55.955Z,14.30
2018-10-04T21:50:24.230Z,14.30
2018-10-04T21:52:52.543Z,14.30
2018-10-04T21:55:21.025Z,14.30
2018-10-04T21:57:49.299Z,14.20
2018-10-04T22:00:17.616Z,14.20
2018-10-04T22:02:46.094Z,14.10
2018-10-04T22:05:14.389Z,14.10
2018-10-04T22:07:42.651Z,14.00
2018-10-04T22:10:11.140Z,14.00
2018-10-04T22:12:39.420Z,14.00
2018-10-04T22:15:07.728Z,13.90
2018-10-04T22:17:36.134Z,13.90
2018-10-04T22:20:04.412Z,13.80
2018-10-04T22:22:32.676Z,13.80
2018-10-04T22:25:00.973Z,13.80
2018-10-04T22:27:29.376Z,13.80
2018-10-04T22:29:57.651Z,13.70
2018-10-04T22:32:25.913Z,13.70
2018-10-04T22:34:54.219Z,13.60
2018-10-04T22:37:22.489Z,13.50
2018-10-04T22:39:50.755Z,13.60
2018-10-04T22:42:19.040Z,13.50
2018-10-04T22:44:47.300Z,13.50
2018-10-04T22:47:15.565Z,13.50
2018-10-04T22:49:43.874Z,13.50
2018-10-04T22:52:12.412Z,13.40
2018-10-04T22:54:40.704Z,13.50
2018-10-04T22:57:08.972Z,13.50
2018-10-04T22:59:37.240Z,13.50
2018-10-04T23:02:05.553Z,13.40
2018-10-04T23:04:33.808Z,13.40
2018-10-04T23:07:02.084Z,13.40
2018-10-04T23:09:30.397Z,13.40
2018-10-04T23:11:58.696Z,13.40
2018-10-04T23:14:26.973Z,13.40
2018-10-04T23:16:55.220Z,13.30
2018-10-04T23:19:23.573Z,13.30
2018-10-04T23:21:51.903Z,13.30
2018-10-04T23:24:20.153Z,13.30
2018-10-04T23:26:48.442Z,13.20
2018-10-04T23:29:16.733Z,13.20
2018-10-04T23:31:45.009Z,13.10
2018-10-04T23:34:13.262Z,13.10
2018-10-04T23:36:41.529Z,13.00
2018-10-04T23:39:10.925Z,13.00
2018-10-04T23:41:39.241Z,13.00
2018-10-04T23:44:07.521Z,13.00
2018-10-04T23:46:35.839Z,13.00
2018-10-04T23:49:04.153Z,13.00
2018-10-04T23:51:32.422Z,12.90
2018-10-04T23:54:00.673Z,12.90
2018-10-04T23:56:28.955Z,12.90
2018-10-04T23:58:57.225Z,12.80
